Time;durP1;ratioP1;P1;durP2;ratioP2;P2;SDS_P1;SDS_P2;PMS_P1;PMS_P2;Temp;Humidity;BMP_temperature;BMP_pressure;BME280_temperature;BME280_humidity;BME280_pressure;Samples;Min_cycle;Max_cycle;Signal;HPM_P1;HPM_P2
2023/03/16 00:00:23;;;;;;;5.43;3.17;;;;;;;-2.49;100.00;93167.63;2562698;22;20026;-85
2023/03/16 00:01:51;;;;;;;4.97;2.92;;;;;;;-2.49;100.00;93166.88;2569844;23;20036;-85
2023/03/16 00:03:02;;;;;;;3.47;3.17;;;;;;;-2.47;100.00;93165.44;2568725;23;20032;-85
2023/03/16 00:04:12;;;;;;;5.32;2.85;;;;;;;-2.55;100.00;93163.69;2573409;22;20005;-84
2023/03/16 00:05:24;;;;;;;6.22;3.78;;;;;;;-2.54;100.00;93162.63;2571431;23;20047;-84
2023/03/16 00:06:35;;;;;;;7.00;3.45;;;;;;;-2.57;100.00;93158.81;2562131;23;20247;-83
2023/03/16 00:07:46;;;;;;;3.90;2.92;;;;;;;-2.60;100.00;93161.31;2571608;23;20004;-84
2023/03/16 00:08:57;;;;;;;5.47;2.83;;;;;;;-2.61;100.00;93165.78;2561506;23;20005;-83
2023/03/16 00:10:07;;;;;;;4.85;2.88;;;;;;;-2.64;100.00;93166.44;2561211;23;20005;-86
2023/03/16 00:11:15;;;;;;;3.72;2.88;;;;;;;-2.59;100.00;93166.25;2571315;23;20008;-84
2023/03/16 00:12:25;;;;;;;4.05;2.60;;;;;;;-2.65;100.00;93157.09;2583806;22;20004;-85
2023/03/16 00:13:32;;;;;;;3.53;2.90;;;;;;;-2.60;100.00;93163.94;2594815;22;20007;-85
2023/03/16 00:14:40;;;;;;;5.65;2.97;;;;;;;-2.64;100.00;93161.22;2583417;22;20015;-84
2023/03/16 00:16:06;;;;;;;5.60;3.05;;;;;;;-2.68;100.00;93162.97;2570967;23;20001;-83
2023/03/16 00:17:22;;;;;;;3.55;2.83;;;;;;;-2.66;100.00;93166.03;2574809;23;20087;-82
2023/03/16 00:18:37;;;;;;;4.82;3.03;;;;;;;-2.74;100.00;93164.31;2563504;23;20001;-86
2023/03/16 00:19:46;;;;;;;4.97;3.03;;;;;;;-2.77;100.00;93170.19;2563199;23;20494;-83
2023/03/16 00:21:02;;;;;;;4.07;2.85;;;;;;;-2.76;100.00;93169.13;2573114;22;20007;-88
2023/03/16 00:22:13;;;;;;;4.63;2.90;;;;;;;-2.70;100.00;93167.78;2572209;23;20009;-86
2023/03/16 00:23:34;;;;;;;5.30;3.10;;;;;;;-2.70;100.00;93174.88;2573342;22;20008;-86
2023/03/16 00:24:45;;;;;;;4.35;3.20;;;;;;;-2.75;100.00;93172.50;2573779;23;20526;-83
2023/03/16 00:25:57;;;;;;;5.68;2.88;;;;;;;-2.84;100.00;93172.63;2571942;23;20004;-87
2023/03/16 00:27:04;;;;;;;5.57;2.92;;;;;;;-2.72;100.00;93169.97;2561996;23;20005;-86
2023/03/16 00:28:12;;;;;;;5.30;3.28;;;;;;;-2.73;100.00;93167.69;2571824;22;20058;-85
2023/03/16 00:29:21;;;;;;;8.43;3.35;;;;;;;-2.71;100.00;93166.25;2570883;23;20005;-85
2023/03/16 00:30:29;;;;;;;4.68;3.30;;;;;;;-2.70;100.00;93162.56;2560415;23;20132;-86
2023/03/16 00:31:37;;;;;;;4.50;3.22;;;;;;;-2.74;100.00;93161.69;2560152;23;20811;-86
2023/03/16 00:32:45;;;;;;;3.95;3.08;;;;;;;-2.74;100.00;93164.31;2560082;23;20005;-85
2023/03/16 00:33:52;;;;;;;4.25;3.25;;;;;;;-2.80;100.00;93165.63;2572611;22;20019;-83
2023/03/16 00:35:02;;;;;;;5.13;3.78;;;;;;;-2.85;100.00;93165.88;2583469;22;20004;-85
2023/03/16 00:36:10;;;;;;;8.63;3.42;;;;;;;-2.87;100.00;93163.56;2584037;22;20440;-87
2023/03/16 00:37:19;;;;;;;4.10;3.33;;;;;;;-2.87;100.00;93168.78;2583584;22;20045;-83
2023/03/16 00:38:27;;;;;;;6.20;3.10;;;;;;;-2.78;100.00;93160.81;2583852;22;20024;-83
2023/03/16 00:39:44;;;;;;;4.72;3.47;;;;;;;-2.81;100.00;93153.63;2571006;23;20397;-84
2023/03/16 00:40:53;;;;;;;5.35;3.20;;;;;;;-2.82;100.00;93149.50;2563824;23;20424;-85
2023/03/16 00:42:02;;;;;;;3.28;2.70;;;;;;;-2.85;100.00;93150.94;2572288;22;19996;-85
2023/03/16 00:43:10;;;;;;;4.65;3.20;;;;;;;-2.85;100.00;93158.78;2570605;23;20008;-86
2023/03/16 00:44:20;;;;;;;5.05;3.10;;;;;;;-2.88;100.00;93153.44;2571421;23;20446;-85
2023/03/16 00:45:26;;;;;;;4.32;2.95;;;;;;;-2.90;100.00;93155.59;2573561;22;20015;-83
2023/03/16 00:46:33;;;;;;;4.55;2.83;;;;;;;-2.88;100.00;93151.59;2570685;23;20000;-84
2023/03/16 00:47:41;;;;;;;4.07;3.15;;;;;;;-2.86;100.00;93148.63;2570518;23;20087;-86
2023/03/16 00:48:50;;;;;;;3.40;3.10;;;;;;;-2.81;100.00;93151.78;2570851;23;20079;-85
2023/03/16 00:49:58;;;;;;;4.60;3.17;;;;;;;-2.83;100.00;93155.81;2560411;23;20528;-85
2023/03/16 00:51:11;;;;;;;4.05;2.97;;;;;;;-2.82;100.00;93152.09;2559870;23;20906;-86
2023/03/16 00:52:26;;;;;;;5.95;3.42;;;;;;;-2.91;100.00;93152.22;2562454;23;20005;-85
2023/03/16 00:53:35;;;;;;;6.15;3.25;;;;;;;-2.97;100.00;93158.03;2575129;22;20054;-85
2023/03/16 00:54:52;;;;;;;5.33;3.03;;;;;;;-2.96;100.00;93138.63;2571060;23;20012;-83
2023/03/16 00:56:03;;;;;;;4.95;3.35;;;;;;;-2.88;100.00;93148.22;2563783;23;20495;-85
2023/03/16 00:57:11;;;;;;;6.30;3.05;;;;;;;-2.88;100.00;93140.38;2561328;23;20009;-84
2023/03/16 00:58:19;;;;;;;5.00;2.80;;;;;;;-2.81;100.00;93145.78;2559770;23;20029;-83
2023/03/16 00:59:26;;;;;;;3.90;3.20;;;;;;;-2.80;100.00;93142.84;2559942;23;20001;-83
2023/03/16 01:00:34;;;;;;;5.15;3.30;;;;;;;-2.83;100.00;93145.38;2559569;23;20005;-85
2023/03/16 01:01:42;;;;;;;4.50;3.80;;;;;;;-2.90;100.00;93145.91;2572164;22;20039;-86
2023/03/16 01:02:50;;;;;;;6.43;4.35;;;;;;;-2.92;100.00;93139.50;2581915;23;20094;-85
2023/03/16 01:03:58;;;;;;;4.78;3.40;;;;;;;-3.01;100.00;93142.25;2572351;22;20476;-84
2023/03/16 01:05:06;;;;;;;5.25;3.47;;;;;;;-3.11;100.00;93140.84;2583382;22;20004;-83
2023/03/16 01:06:16;;;;;;;6.18;3.20;;;;;;;-3.06;100.00;93145.09;2594797;22;20446;-84
2023/03/16 01:07:24;;;;;;;4.13;3.20;;;;;;;-3.07;100.00;93146.19;2581649;23;20004;-83
2023/03/16 01:08:32;;;;;;;4.82;3.20;;;;;;;-3.04;100.00;93143.66;2572386;22;20055;-83
2023/03/16 01:09:41;;;;;;;5.35;3.10;;;;;;;-2.98;100.00;93143.44;2583449;22;20011;-85
2023/03/16 01:10:50;;;;;;;4.03;3.28;;;;;;;-2.97;100.00;93142.34;2571239;23;20040;-86
2023/03/16 01:11:58;;;;;;;6.03;3.42;;;;;;;-2.98;100.00;93146.81;2572958;22;20003;-84
2023/03/16 01:13:04;;;;;;;4.88;3.35;;;;;;;-3.15;100.00;93141.81;2571026;23;20004;-86
2023/03/16 01:14:12;;;;;;;4.18;3.35;;;;;;;-3.17;100.00;93144.00;2571451;22;20585;-86
2023/03/16 01:15:18;;;;;;;5.68;3.50;;;;;;;-3.15;100.00;93142.59;2570522;23;20036;-85
2023/03/16 01:16:27;;;;;;;3.63;3.10;;;;;;;-3.13;100.00;93132.56;2571703;22;20031;-83
2023/03/16 01:17:38;;;;;;;4.53;3.17;;;;;;;-3.08;100.00;93136.78;2570886;23;20080;-83
2023/03/16 01:18:46;;;;;;;5.15;2.90;;;;;;;-3.05;100.00;93134.28;2560360;23;20008;-86
2023/03/16 01:19:55;;;;;;;5.18;3.25;;;;;;;-3.04;100.00;93129.81;2560157;23;20076;-86
2023/03/16 01:21:13;;;;;;;4.10;3.38;;;;;;;-3.14;100.00;93128.41;2569981;23;20062;-86
2023/03/16 01:22:17;;;;;;;6.15;3.30;;;;;;;-3.14;100.00;93128.41;2563604;23;20329;-85
2023/03/16 01:23:24;;;;;;;6.15;3.88;;;;;;;-3.10;100.00;93138.97;2569977;23;20051;-85
2023/03/16 01:24:33;;;;;;;4.43;3.13;;;;;;;-3.14;100.00;93130.28;2570874;23;20001;-83
2023/03/16 01:25:53;;;;;;;4.30;3.22;;;;;;;-3.15;100.00;93134.75;2560596;23;20464;-84
2023/03/16 01:27:00;;;;;;;5.55;3.05;;;;;;;-3.18;100.00;93130.16;2564649;23;20009;-85
2023/03/16 01:28:09;;;;;;;3.55;2.75;;;;;;;-3.18;100.00;93121.56;2570595;23;20075;-85
2023/03/16 01:29:27;;;;;;;3.22;2.80;;;;;;;-3.21;100.00;93130.06;2570916;23;20095;-86
2023/03/16 01:30:34;;;;;;;3.75;2.67;;;;;;;-3.19;100.00;93123.41;2564024;23;20009;-85
2023/03/16 01:31:45;;;;;;;4.68;2.85;;;;;;;-3.23;100.00;93129.63;2572109;22;20051;-84
2023/03/16 01:32:53;;;;;;;6.68;3.20;;;;;;;-3.20;100.00;93127.13;2581529;23;20027;-86
2023/03/16 01:34:06;;;;;;;3.97;2.72;;;;;;;-3.23;100.00;93121.78;2559587;23;20018;-83
2023/03/16 01:35:13;;;;;;;7.30;3.17;;;;;;;-3.20;100.00;93127.13;2562081;23;20067;-84
2023/03/16 01:36:20;;;;;;;4.95;3.00;;;;;;;-3.17;100.00;93125.69;2572200;22;20337;-85
2023/03/16 01:37:28;;;;;;;5.60;3.10;;;;;;;-3.10;100.00;93120.69;2570755;23;20000;-84
2023/03/16 01:38:42;;;;;;;5.90;3.13;;;;;;;-3.09;100.00;93124.81;2559224;23;20019;-84
2023/03/16 01:39:51;;;;;;;4.22;2.92;;;;;;;-3.11;100.00;93125.16;2562134;23;20008;-85
2023/03/16 01:41:00;;;;;;;4.97;3.22;;;;;;;-3.16;100.00;93121.97;2571134;23;20004;-85
2023/03/16 01:42:08;;;;;;;4.60;2.45;;;;;;;-3.13;100.00;93122.09;2560460;23;20033;-83
2023/03/16 01:43:17;;;;;;;5.43;3.47;;;;;;;-3.10;100.00;93125.91;2570872;23;20826;-84
2023/03/16 01:44:34;;;;;;;5.05;2.85;;;;;;;-3.11;100.00;93121.78;2560113;23;20432;-86
2023/03/16 01:46:13;;;;;;;3.30;2.88;;;;;;;-3.11;100.00;93117.31;2575428;22;20005;-84
2023/03/16 01:47:21;;;;;;;4.13;2.50;;;;;;;-3.25;100.00;93114.25;2581256;23;20093;-83
2023/03/16 01:48:36;;;;;;;4.00;2.60;;;;;;;-3.15;100.00;93116.44;2560033;23;20005;-84
2023/03/16 01:49:47;;;;;;;4.22;2.80;;;;;;;-3.15;100.00;93113.06;2562776;23;20000;-85
2023/03/16 01:50:55;;;;;;;3.78;2.72;;;;;;;-3.11;100.00;93117.31;2573449;22;20004;-84
2023/03/16 01:52:13;;;;;;;4.03;2.72;;;;;;;-3.19;100.00;93115.56;2570454;23;20001;-84
2023/03/16 01:53:23;;;;;;;4.18;3.05;;;;;;;-3.09;100.00;93117.72;2576673;22;20130;-85
2023/03/16 01:54:53;;;;;;;5.22;2.70;;;;;;;-3.02;100.00;93116.44;2571092;23;20012;-85
2023/03/16 01:56:07;;;;;;;2.83;2.35;;;;;;;-3.07;100.00;93115.56;2568878;23;20086;-85
2023/03/16 01:57:21;;;;;;;4.82;2.72;;;;;;;-3.19;100.00;93120.03;2571910;23;20012;-84
2023/03/16 01:58:34;;;;;;;4.95;2.95;;;;;;;-3.19;100.00;93110.34;2574120;22;20012;-85
2023/03/16 02:00:17;;;;;;;4.72;3.50;;;;;;;-3.26;100.00;93114.59;2581457;23;20493;-85
2023/03/16 02:01:27;;;;;;;2.75;2.50;;;;;;;-3.25;100.00;93114.25;2586825;22;20095;-85
2023/03/16 02:02:32;;;;;;;4.47;3.15;;;;;;;-3.34;100.00;93116.22;2583736;22;20111;-87
2023/03/16 02:03:33;;;;;;;3.25;2.85;;;;;;;-3.32;100.00;93122.66;2582526;22;20008;-86
2023/03/16 02:05:06;;;;;;;4.82;2.85;;;;;;;-3.28;100.00;93120.16;2568665;23;20009;-86
2023/03/16 02:06:25;;;;;;;4.97;2.53;;;;;;;-3.32;100.00;93121.91;2569771;22;20035;-86
2023/03/16 02:07:30;;;;;;;4.32;2.55;;;;;;;-3.38;100.00;93128.44;2581671;23;20019;-87
2023/03/16 02:08:32;;;;;;;3.78;2.58;;;;;;;-3.46;100.00;93130.09;2558749;23;20005;-87
2023/03/16 02:09:41;;;;;;;4.05;2.95;;;;;;;-3.36;100.00;93115.81;2570046;22;20027;-86
2023/03/16 02:10:43;;;;;;;5.07;2.80;;;;;;;-3.29;100.00;93116.03;2570593;23;20014;-86
2023/03/16 02:11:54;;;;;;;3.70;2.83;;;;;;;-3.35;100.00;93125.16;2569484;23;20008;-86
2023/03/16 02:13:02;;;;;;;3.10;2.60;;;;;;;-3.36;100.00;93121.78;2571103;23;20424;-83
2023/03/16 02:14:09;;;;;;;5.03;2.88;;;;;;;-3.34;100.00;93111.75;2559581;23;20055;-84
2023/03/16 02:15:19;;;;;;;3.67;2.60;;;;;;;-3.41;100.00;93114.19;2559426;23;20568;-85
2023/03/16 02:16:23;;;;;;;;;;;;;;;-3.39;100.00;93109.38;2561328;23;20448;-86
2023/03/16 02:17:35;;;;;;;3.65;2.30;;;;;;;-3.38;100.00;93110.13;2570208;22;19903;-84
2023/03/16 02:18:42;;;;;;;3.58;3.00;;;;;;;-3.45;100.00;93115.16;2571223;23;20004;-86
2023/03/16 02:19:59;;;;;;;3.63;2.45;;;;;;;-3.37;100.00;93103.84;2559652;23;20329;-88
2023/03/16 02:21:15;;;;;;;7.20;2.67;;;;;;;-3.37;100.00;93099.38;2563076;23;20009;-84
2023/03/16 02:22:23;;;;;;;4.75;2.53;;;;;;;-3.37;100.00;93096.75;2575588;22;20012;-84
2023/03/16 02:23:31;;;;;;;5.75;2.80;;;;;;;-3.45;100.00;93094.25;2580729;23;20010;-88
2023/03/16 02:24:32;;;;;;;4.78;2.70;;;;;;;-3.45;100.00;93100.25;2570421;23;20009;-86
2023/03/16 02:25:50;;;;;;;5.70;2.67;;;;;;;-3.44;100.00;93099.16;2557080;23;20726;-86
2023/03/16 02:27:03;;;;;;;3.20;2.42;;;;;;;-3.39;100.00;93098.94;2572932;23;20534;-86
2023/03/16 02:28:46;;;;;;;6.60;3.15;;;;;;;-3.41;100.00;93097.75;2571567;23;20436;-84
2023/03/16 02:30:24;;;;;;;4.13;2.45;;;;;;;-3.42;100.00;93091.75;2573876;23;20042;-85
2023/03/16 02:31:27;;;;;;;3.47;2.47;;;;;;;-3.44;100.00;93098.41;2526907;23;20012;-85
2023/03/16 02:32:34;;;;;;;3.05;2.50;;;;;;;-3.48;100.00;93095.66;2561179;22;20009;-87
2023/03/16 02:33:43;;;;;;;4.32;2.70;;;;;;;-3.59;100.00;93102.44;2570077;23;20424;-84
2023/03/16 02:34:48;;;;;;;3.30;2.53;;;;;;;-3.56;100.00;93099.16;2560695;23;20039;-86
2023/03/16 02:35:56;;;;;;;4.25;2.45;;;;;;;-3.46;100.00;93096.13;2569832;23;20011;-84
2023/03/16 02:37:05;;;;;;;6.55;2.80;;;;;;;-3.45;100.00;93092.41;2572454;22;20004;-84
2023/03/16 02:38:14;;;;;;;3.67;2.28;;;;;;;-3.42;100.00;93091.00;2583435;22;20008;-85
2023/03/16 02:39:21;;;;;;;2.72;2.10;;;;;;;-3.45;100.00;93092.41;2581598;23;20095;-84
2023/03/16 02:40:30;;;;;;;5.10;2.33;;;;;;;-3.51;100.00;93088.50;2570784;23;20420;-83
2023/03/16 02:41:38;;;;;;;2.40;2.20;;;;;;;-3.57;100.00;93093.16;2559493;23;20016;-85
2023/03/16 02:42:48;;;;;;;3.53;2.30;;;;;;;-3.58;100.00;93090.91;2559549;23;20012;-85
2023/03/16 02:44:01;;;;;;;3.28;2.53;;;;;;;-3.49;100.00;93085.56;2573012;22;20011;-82
2023/03/16 02:45:10;;;;;;;2.53;2.22;;;;;;;-3.60;100.00;93080.78;2594388;22;20452;-82
2023/03/16 02:46:17;;;;;;;2.85;2.20;;;;;;;-3.58;100.00;93075.22;2570788;23;20024;-85
2023/03/16 02:47:42;;;;;;;3.50;2.22;;;;;;;-3.62;100.00;93082.19;2570463;23;20329;-84
2023/03/16 02:48:58;;;;;;;3.85;2.30;;;;;;;-3.59;100.00;93076.31;2574797;22;20018;-84
2023/03/16 02:50:06;;;;;;;3.45;2.13;;;;;;;-3.52;100.00;93076.50;2576889;23;20474;-84
2023/03/16 02:51:15;;;;;;;3.92;2.30;;;;;;;-3.62;100.00;93082.19;2572170;22;20009;-83
2023/03/16 02:52:20;;;;;;;2.58;2.10;;;;;;;-3.60;100.00;93074.78;2581577;23;20061;-86
2023/03/16 02:53:29;;;;;;;2.80;2.10;;;;;;;-3.67;100.00;93080.56;2558685;23;20484;-86
2023/03/16 02:54:37;;;;;;;4.53;2.50;;;;;;;-3.67;100.00;93080.56;2570746;23;20012;-86
2023/03/16 02:55:44;;;;;;;2.85;1.83;;;;;;;-3.63;100.00;93081.44;2583049;22;20000;-85
2023/03/16 02:56:48;;;;;;;4.88;2.28;;;;;;;-3.56;100.00;93084.25;2570553;23;20005;-85
2023/03/16 02:57:57;;;;;;;3.58;1.70;;;;;;;-3.61;100.00;93075.88;2570588;22;20005;-84
2023/03/16 02:59:04;;;;;;;4.03;2.33;;;;;;;-3.72;100.00;93080.78;2581061;23;20327;-87
2023/03/16 03:00:25;;;;;;;3.63;2.30;;;;;;;-3.72;100.00;93077.41;2559003;23;20048;-85
2023/03/16 03:01:33;;;;;;;3.70;1.90;;;;;;;-3.60;100.00;93072.16;2564934;23;20487;-85
2023/03/16 03:02:42;;;;;;;2.67;2.15;;;;;;;-3.57;100.00;93074.13;2559855;23;20399;-83
2023/03/16 03:03:43;;;;;;;3.38;2.30;;;;;;;-3.64;100.00;93071.31;2559781;23;20390;-85
2023/03/16 03:04:53;;;;;;;2.97;1.85;;;;;;;-3.62;100.00;93072.50;2556769;23;20024;-85
2023/03/16 03:05:58;;;;;;;2.88;2.13;;;;;;;-3.61;100.00;93074.00;2572631;22;20008;-82
2023/03/16 03:07:05;;;;;;;2.10;1.85;;;;;;;-3.61;100.00;93075.88;2569718;23;20004;-83
2023/03/16 03:08:07;;;;;;;2.63;1.90;;;;;;;-3.68;100.00;93086.13;2559426;23;20072;-85
2023/03/16 03:09:12;;;;;;;3.33;1.90;;;;;;;-3.74;100.00;93085.56;2557416;23;20005;-84
2023/03/16 03:10:15;;;;;;;4.05;2.17;;;;;;;-3.67;100.00;93074.56;2558129;23;20857;-87
2023/03/16 03:11:22;;;;;;;4.40;2.05;;;;;;;-3.67;100.00;93069.34;2570376;22;20079;-85
2023/03/16 03:12:28;;;;;;;2.15;1.90;;;;;;;-3.79;100.00;93077.94;2581308;23;20340;-84
2023/03/16 03:13:30;;;;;;;2.10;1.70;;;;;;;-3.76;100.00;93072.06;2571035;22;20005;-84
2023/03/16 03:14:36;;;;;;;2.30;2.10;;;;;;;-3.80;100.00;93061.50;2570142;23;20012;-85
2023/03/16 03:15:44;;;;;;;3.55;2.20;;;;;;;-3.76;100.00;93061.63;2583478;22;20008;-84
2023/03/16 03:16:47;;;;;;;2.75;2.03;;;;;;;-3.75;100.00;93065.00;2571402;23;20448;-86
2023/03/16 03:17:56;;;;;;;2.60;1.88;;;;;;;-3.67;100.00;93064.88;2558707;23;20085;-85
2023/03/16 03:19:04;;;;;;;2.63;1.73;;;;;;;-3.66;100.00;93063.78;2560688;23;20135;-87
2023/03/16 03:20:12;;;;;;;3.17;1.67;;;;;;;-3.73;100.00;93071.44;2572760;22;20005;-85
2023/03/16 03:21:13;;;;;;;3.22;2.00;;;;;;;-3.72;100.00;93070.34;2582446;23;20004;-84
2023/03/16 03:22:17;;;;;;;2.00;1.80;;;;;;;-3.75;100.00;93070.22;2570353;22;20001;-86
2023/03/16 03:23:18;;;;;;;2.28;2.08;;;;;;;-3.78;100.00;93066.41;2570626;23;20028;-86
2023/03/16 03:24:22;;;;;;;3.97;1.90;;;;;;;-3.81;100.00;93072.28;2557955;23;20005;-88
2023/03/16 03:25:23;;;;;;;3.17;1.90;;;;;;;-3.78;100.00;93071.63;2558231;23;20009;-85
2023/03/16 03:26:26;;;;;;;3.03;1.88;;;;;;;-3.77;100.00;93075.03;2557515;23;20519;-84
2023/03/16 03:27:27;;;;;;;2.60;1.98;;;;;;;-3.87;100.00;93069.13;2570522;22;20004;-84
2023/03/16 03:28:29;;;;;;;2.45;1.70;;;;;;;-3.82;100.00;93076.75;2569948;23;20080;-86
2023/03/16 03:29:34;;;;;;;2.92;2.00;;;;;;;-3.72;100.00;93072.94;2558255;23;20069;-86
2023/03/16 03:30:36;;;;;;;4.03;2.15;;;;;;;-3.73;100.00;93070.63;2558770;23;20687;-84
2023/03/16 03:31:37;;;;;;;1.63;1.42;;;;;;;-3.76;100.00;93061.63;2569813;22;20042;-85
2023/03/16 03:32:39;;;;;;;2.40;2.10;;;;;;;-3.85;100.00;93066.19;2582495;22;20004;-82
2023/03/16 03:33:40;;;;;;;3.72;1.70;;;;;;;-3.77;100.00;93073.16;2570116;23;20005;-82
2023/03/16 03:34:41;;;;;;;3.40;1.98;;;;;;;-3.75;100.00;93067.59;2570145;23;20005;-84
2023/03/16 03:35:42;;;;;;;2.95;1.80;;;;;;;-3.68;100.00;93065.97;2570110;23;20001;-83
2023/03/16 03:36:43;;;;;;;2.95;1.70;;;;;;;-3.76;100.00;93072.06;2557034;23;20008;-83
2023/03/16 03:37:44;;;;;;;2.75;1.50;;;;;;;-3.84;100.00;93059.88;2557367;23;20310;-85
2023/03/16 03:38:45;;;;;;;2.75;1.90;;;;;;;-3.88;100.00;93067.59;2569822;23;20016;-86
2023/03/16 03:39:47;;;;;;;6.43;2.20;;;;;;;-3.84;100.00;93067.72;2557602;23;20068;-85
2023/03/16 03:40:52;;;;;;;3.97;2.17;;;;;;;-3.86;100.00;93062.06;2570164;23;20095;-83
2023/03/16 03:41:53;;;;;;;3.75;2.17;;;;;;;-3.81;100.00;93064.47;2558370;23;20333;-82
2023/03/16 03:42:54;;;;;;;2.22;1.70;;;;;;;-3.80;100.00;93071.97;2557234;23;20093;-83
2023/03/16 03:43:55;;;;;;;2.63;1.95;;;;;;;-3.70;100.00;93064.78;2557340;23;20001;-87
2023/03/16 03:44:56;;;;;;;3.15;1.60;;;;;;;-3.72;100.00;93078.16;2570072;23;20024;-84
2023/03/16 03:46:01;;;;;;;3.63;2.10;;;;;;;-3.72;100.00;93070.34;2570199;23;20008;-86
2023/03/16 03:47:02;;;;;;;2.05;1.70;;;;;;;-3.75;100.00;93070.97;2559182;23;20011;-86
2023/03/16 03:48:03;;;;;;;3.42;2.28;;;;;;;-3.91;100.00;93075.31;2557471;23;20000;-85
2023/03/16 03:49:04;;;;;;;3.53;1.88;;;;;;;-3.93;100.00;93067.06;2557230;23;20013;-87
2023/03/16 03:50:06;;;;;;;3.92;1.95;;;;;;;-3.95;100.00;93069.22;2569700;23;20460;-86
2023/03/16 03:51:08;;;;;;;3.35;2.08;;;;;;;-3.95;100.00;93069.22;2557945;23;20012;-83
2023/03/16 03:52:09;;;;;;;3.80;1.88;;;;;;;-3.97;100.00;93074.03;2569867;23;20008;-84
2023/03/16 03:53:10;;;;;;;4.00;2.05;;;;;;;-3.97;100.00;93071.41;2557820;23;20004;-84
2023/03/16 03:54:19;;;;;;;3.03;2.00;;;;;;;-3.92;100.00;93068.56;2569923;23;20502;-84
2023/03/16 03:55:20;;;;;;;3.60;2.30;;;;;;;-4.02;100.00;93069.78;2560322;23;20001;-82
2023/03/16 03:56:21;;;;;;;2.92;1.90;;;;;;;-4.07;100.00;93068.13;2557512;23;20710;-86
2023/03/16 03:57:22;;;;;;;3.75;2.15;;;;;;;-4.02;100.00;93069.00;2557469;23;20012;-88
2023/03/16 03:58:23;;;;;;;5.93;2.25;;;;;;;-4.03;100.00;93068.25;2557597;23;20008;-87
2023/03/16 03:59:24;;;;;;;4.82;2.15;;;;;;;-3.97;100.00;93064.34;2570099;22;20005;-85
2023/03/16 04:00:25;;;;;;;2.30;2.00;;;;;;;-3.92;100.00;93063.34;2569848;23;20039;-83
2023/03/16 04:01:26;;;;;;;3.78;2.35;;;;;;;-3.94;100.00;93063.69;2569820;23;20432;-86
2023/03/16 04:02:27;;;;;;;4.20;2.20;;;;;;;-3.95;100.00;93062.19;2569810;23;20051;-87
2023/03/16 04:03:28;;;;;;;4.13;2.53;;;;;;;-3.94;100.00;93068.16;2557563;23;20468;-86
2023/03/16 04:04:29;;;;;;;3.40;2.20;;;;;;;-3.95;100.00;93069.22;2557668;23;20080;-85
2023/03/16 04:05:30;;;;;;;4.22;2.30;;;;;;;-4.09;100.00;93065.06;2582825;22;20004;-85
2023/03/16 04:06:30;;;;;;;5.40;2.88;;;;;;;-4.10;100.00;93057.59;2570601;23;20435;-84
2023/03/16 04:07:31;;;;;;;3.55;2.75;;;;;;;-4.11;100.00;93063.91;2557854;23;20403;-84
2023/03/16 04:08:33;;;;;;;3.85;2.40;;;;;;;-4.10;100.00;93062.81;2557177;23;20117;-84
2023/03/16 04:09:35;;;;;;;6.10;2.70;;;;;;;-4.10;100.00;93062.81;2557640;23;20009;-85
2023/03/16 04:10:36;;;;;;;3.50;2.30;;;;;;;-3.99;100.00;93065.75;2557478;23;20283;-84
2023/03/16 04:11:37;;;;;;;3.15;2.55;;;;;;;-4.03;100.00;93067.50;2570171;23;19996;-85
2023/03/16 04:12:38;;;;;;;5.22;2.72;;;;;;;-4.01;100.00;93062.69;2557422;23;20005;-84
2023/03/16 04:13:40;;;;;;;4.13;2.47;;;;;;;-3.99;100.00;93070.97;2557382;23;20420;-84
2023/03/16 04:14:42;;;;;;;4.40;2.50;;;;;;;-4.03;100.00;93070.88;2557374;23;20040;-84
2023/03/16 04:15:45;;;;;;;2.90;2.10;;;;;;;-4.10;100.00;93068.03;2557616;23;20008;-82
2023/03/16 04:16:46;;;;;;;4.28;2.38;;;;;;;-4.13;100.00;93061.59;2558367;23;20433;-84
2023/03/16 04:17:49;;;;;;;4.22;2.30;;;;;;;-4.15;100.00;93074.22;2569921;23;20046;-86
2023/03/16 04:18:50;;;;;;;4.15;2.50;;;;;;;-4.12;100.00;93070.22;2582889;22;20451;-86
2023/03/16 04:19:51;;;;;;;4.60;2.38;;;;;;;-4.13;100.00;93072.03;2569743;23;20008;-84
2023/03/16 04:20:53;;;;;;;3.55;2.60;;;;;;;-4.15;100.00;93070.84;2558048;23;20031;-84
2023/03/16 04:21:53;;;;;;;3.70;2.47;;;;;;;-4.16;100.00;93064.09;2557474;23;20033;-83
2023/03/16 04:22:57;;;;;;;5.25;3.00;;;;;;;-4.15;100.00;93063.78;2557939;23;20009;-82
2023/03/16 04:23:58;;;;;;;4.15;3.00;;;;;;;-4.15;100.00;93061.16;2570720;23;20036;-81
2023/03/16 04:25:01;;;;;;;2.78;2.38;;;;;;;-4.05;100.00;93063.34;2569911;23;20000;-84
2023/03/16 04:26:04;;;;;;;2.92;2.47;;;;;;;-4.13;100.00;93058.22;2569877;23;20008;-86
2023/03/16 04:27:05;;;;;;;3.47;2.30;;;;;;;-4.14;100.00;93057.47;2570605;22;20447;-85
2023/03/16 04:28:06;;;;;;;3.08;2.25;;;;;;;-4.11;100.00;93059.44;2570015;23;20032;-82
2023/03/16 04:29:07;;;;;;;3.35;2.38;;;;;;;-4.10;100.00;93058.34;2557923;23;20515;-86
2023/03/16 04:30:11;;;;;;;3.70;2.40;;;;;;;-4.13;100.00;93056.38;2557917;23;20009;-86
2023/03/16 04:31:13;;;;;;;3.03;2.60;;;;;;;-4.16;100.00;93051.06;2559147;23;20001;-86
2023/03/16 04:32:14;;;;;;;7.20;2.63;;;;;;;-4.13;100.00;93053.75;2557386;23;20027;-83
2023/03/16 04:33:15;;;;;;;2.92;2.30;;;;;;;-4.19;100.00;93046.47;2570050;23;20012;-83
2023/03/16 04:34:15;;;;;;;5.82;3.28;;;;;;;-4.13;100.00;93048.53;2557664;23;20001;-87
2023/03/16 04:35:23;;;;;;;5.03;2.83;;;;;;;-4.18;100.00;93046.16;2570025;23;20399;-89
2023/03/16 04:36:24;;;;;;;4.82;3.20;;;;;;;-4.14;100.00;93048.88;2571294;23;20454;-84
2023/03/16 04:37:25;;;;;;;5.68;4.00;;;;;;;-4.13;100.00;93043.31;2557208;23;20012;-85
2023/03/16 04:38:26;;;;;;;5.95;3.47;;;;;;;-4.08;100.00;93048.34;2557320;23;20037;-84
2023/03/16 04:39:27;;;;;;;5.35;4.05;;;;;;;-4.05;100.00;93044.31;2570020;22;20000;-84
2023/03/16 04:40:29;;;;;;;4.38;3.97;;;;;;;-4.16;100.00;93041.38;2569749;23;20008;-86
2023/03/16 04:41:32;;;;;;;4.63;4.00;;;;;;;-4.15;100.00;93036.91;2571884;22;20463;-85
2023/03/16 04:42:34;;;;;;;4.60;4.20;;;;;;;-4.14;100.00;93038.44;2569909;23;20353;-85
2023/03/16 04:43:35;;;;;;;6.32;3.30;;;;;;;-4.05;100.00;93034.63;2569709;23;20080;-84
2023/03/16 04:44:43;;;;;;;4.57;3.00;;;;;;;-4.02;100.00;93032.47;2557409;23;20841;-84
2023/03/16 04:45:44;;;;;;;4.68;2.63;;;;;;;-4.05;100.00;93042.47;2572758;22;20003;-85
2023/03/16 04:46:45;;;;;;;4.80;2.75;;;;;;;-4.06;100.00;93033.13;2569854;23;20483;-82
2023/03/16 04:47:48;;;;;;;3.63;3.03;;;;;;;-4.00;100.00;93033.66;2570138;22;20008;-84
2023/03/16 04:48:49;;;;;;;3.65;2.95;;;;;;;-3.99;100.00;93031.84;2569758;23;20008;-85
2023/03/16 04:49:50;;;;;;;5.78;4.90;;;;;;;-4.03;100.00;93029.09;2569824;23;20340;-83
2023/03/16 04:50:51;;;;;;;5.95;5.45;;;;;;;-3.89;100.00;93031.38;2569942;23;20004;-84
2023/03/16 04:51:52;;;;;;;7.60;6.90;;;;;;;-3.92;100.00;93022.34;2569583;23;20468;-84
2023/03/16 04:52:53;;;;;;;7.18;4.05;;;;;;;-3.97;100.00;93032.25;2569810;23;20066;-83
2023/03/16 04:53:54;;;;;;;8.25;3.97;;;;;;;-4.04;100.00;93024.94;2557123;23;20016;-84
2023/03/16 04:54:55;;;;;;;5.45;3.42;;;;;;;-4.01;100.00;93028.78;2569320;23;20039;-88
2023/03/16 04:55:58;;;;;;;5.60;3.33;;;;;;;-3.98;100.00;93030.72;2557350;23;20019;-87
2023/03/16 04:56:59;;;;;;;3.25;2.67;;;;;;;-3.95;100.00;93022.22;2570436;22;20490;-85
2023/03/16 04:58:00;;;;;;;2.65;2.38;;;;;;;-3.94;100.00;93029.75;2569676;23;20335;-82
2023/03/16 04:59:01;;;;;;;3.83;2.70;;;;;;;-3.93;100.00;93030.50;2569831;22;20000;-82
2023/03/16 05:00:18;;;;;;;2.95;2.67;;;;;;;-3.95;100.00;93032.69;2569389;23;20004;-82
2023/03/16 05:01:19;;;;;;;3.17;2.50;;;;;;;-3.95;100.00;93033.47;2563016;23;20013;-84
2023/03/16 05:02:19;;;;;;;4.13;2.30;;;;;;;-3.98;100.00;93022.91;2556891;23;20012;-85
2023/03/16 05:03:21;;;;;;;5.20;2.95;;;;;;;-4.09;100.00;93033.00;2569384;23;20007;-84
2023/03/16 05:04:23;;;;;;;3.85;2.90;;;;;;;-4.10;100.00;93024.41;2557527;23;20368;-87
2023/03/16 05:05:24;;;;;;;4.43;2.95;;;;;;;-4.05;100.00;93034.63;2557886;23;20352;-88
2023/03/16 05:06:25;;;;;;;4.55;3.25;;;;;;;-4.07;100.00;93036.81;2556855;23;20005;-84
2023/03/16 05:07:26;;;;;;;3.40;3.10;;;;;;;-4.03;100.00;93041.41;2569451;23;20027;-84
2023/03/16 05:08:27;;;;;;;5.35;2.47;;;;;;;-4.09;100.00;93033.75;2557065;23;20080;-86
2023/03/16 05:09:28;;;;;;;4.47;2.88;;;;;;;-4.05;100.00;93028.66;2557011;23;20005;-85
2023/03/16 05:10:32;;;;;;;3.65;2.58;;;;;;;-4.04;100.00;93032.78;2569531;23;20014;-84
2023/03/16 05:11:35;;;;;;;4.18;2.38;;;;;;;-4.08;100.00;93024.88;2557911;23;20051;-83